Time;durP1;ratioP1;P1;durP2;ratioP2;P2;SDS_P1;SDS_P2;PMS_P1;PMS_P2;Temp;Humidity;BMP_temperature;BMP_pressure;BME280_temperature;BME280_humidity;BME280_pressure;Samples;Min_cycle;Max_cycle;Signal;HPM_P1;HPM_P2
2023/06/10 00:00:17;;;;;;;13.85;5.72;;;;;;;16.91;100.00;97070.69;5117810;27;20051;-75
2023/06/10 00:02:43;;;;;;;13.93;6.30;;;;;;;16.86;100.00;97072.97;5136453;27;20474;-75
2023/06/10 00:05:09;;;;;;;13.20;6.18;;;;;;;16.83;100.00;97068.69;5120073;27;20031;-76
2023/06/10 00:07:37;;;;;;;12.45;8.05;;;;;;;16.84;100.00;97069.53;5119769;27;20031;-76
2023/06/10 00:10:05;;;;;;;14.52;8.15;;;;;;;16.75;100.00;97055.94;5137240;27;20027;-76
2023/06/10 00:12:36;;;;;;;12.18;7.72;;;;;;;16.76;100.00;97063.00;5117790;27;20163;-76
2023/06/10 00:15:04;;;;;;;13.70;7.50;;;;;;;16.78;100.00;97055.63;5115062;27;20035;-76
2023/06/10 00:17:30;;;;;;;19.30;7.60;;;;;;;16.66;100.00;97048.69;5136728;27;20023;-76
2023/06/10 00:19:55;;;;;;;15.63;7.72;;;;;;;16.58;100.00;97062.03;5137090;27;20049;-75
2023/06/10 00:22:22;;;;;;;10.93;7.15;;;;;;;16.55;100.00;97067.72;5138180;27;20023;-76
2023/06/10 00:24:47;;;;;;;12.13;7.88;;;;;;;16.61;100.00;97085.22;5119940;27;20102;-76
2023/06/10 00:27:13;;;;;;;14.63;8.27;;;;;;;16.65;100.00;97082.09;5138424;27;20375;-76
2023/06/10 00:29:39;;;;;;;16.48;8.40;;;;;;;16.64;100.00;97079.53;5119591;27;20571;-76
2023/06/10 00:32:05;;;;;;;12.48;8.30;;;;;;;16.60;100.00;97072.72;5137196;27;20038;-76
2023/06/10 00:34:32;;;;;;;11.95;7.70;;;;;;;16.63;100.00;97072.44;5136484;27;20037;-76
2023/06/10 00:36:57;;;;;;;12.25;8.32;;;;;;;16.68;100.00;97073.69;5119966;27;20031;-76
2023/06/10 00:39:23;;;;;;;15.80;8.07;;;;;;;16.75;100.00;97069.44;5119537;27;20031;-76
2023/06/10 00:41:49;;;;;;;14.77;8.07;;;;;;;16.74;100.00;97073.13;5138066;27;20091;-76
2023/06/10 00:44:15;;;;;;;14.65;7.63;;;;;;;16.69;100.00;97059.22;5119628;27;20034;-76
2023/06/10 00:46:41;;;;;;;13.25;7.03;;;;;;;16.75;100.00;97066.72;5119444;27;20030;-75
2023/06/10 00:49:06;;;;;;;19.88;7.85;;;;;;;16.74;100.00;97075.81;5137874;27;20470;-74
2023/06/10 00:51:32;;;;;;;10.32;7.57;;;;;;;16.75;100.00;97076.69;5119325;27;20038;-75
2023/06/10 00:53:57;;;;;;;14.95;7.53;;;;;;;16.75;100.00;97073.97;5119472;27;20490;-75
2023/06/10 00:56:23;;;;;;;11.90;7.22;;;;;;;16.77;100.00;97078.22;5119739;27;20038;-74
2023/06/10 00:58:48;;;;;;;14.93;7.53;;;;;;;16.80;100.00;97086.03;5107708;27;20027;-75
2023/06/10 01:01:14;;;;;;;12.07;6.78;;;;;;;16.90;100.00;97095.97;5131570;27;20394;-74
2023/06/10 01:03:40;;;;;;;11.30;7.43;;;;;;;16.94;100.00;97092.00;5136266;27;20027;-75
2023/06/10 01:06:30;;;;;;;13.60;7.45;;;;;;;17.03;100.00;97091.97;5136551;27;20026;-74
2023/06/10 01:09:06;;;;;;;11.63;7.55;;;;;;;17.11;100.00;97097.50;5133162;27;20106;-77
2023/06/10 01:11:41;;;;;;;12.73;7.45;;;;;;;17.15;100.00;97093.50;5133428;27;20510;-76
2023/06/10 01:14:07;;;;;;;15.02;8.52;;;;;;;17.16;100.00;97080.84;5133355;27;20394;-75
2023/06/10 01:16:35;;;;;;;10.68;6.93;;;;;;;17.21;100.00;97075.84;5115991;27;20023;-76
2023/06/10 01:19:01;;;;;;;16.65;7.20;;;;;;;17.25;100.00;97079.97;5100824;28;20047;-76
2023/06/10 01:21:27;;;;;;;12.50;7.30;;;;;;;17.24;100.00;97079.13;5129401;27;20167;-76
2023/06/10 01:23:53;;;;;;;14.43;7.28;;;;;;;17.24;100.00;97084.53;5115779;27;20023;-76
2023/06/10 01:26:20;;;;;;;14.75;8.07;;;;;;;17.23;100.00;97092.75;5133089;27;20038;-75
2023/06/10 01:28:57;;;;;;;12.50;6.97;;;;;;;17.20;100.00;97098.47;5115603;27;20062;-76
2023/06/10 01:31:49;;;;;;;14.52;7.43;;;;;;;17.27;100.00;97099.59;5132895;27;20084;-75
2023/06/10 01:34:17;;;;;;;14.63;7.35;;;;;;;17.30;100.00;97104.69;5132857;27;20038;-75
2023/06/10 01:36:47;;;;;;;16.33;6.90;;;;;;;17.17;100.00;97088.81;5133857;27;20027;-75
2023/06/10 01:39:15;;;;;;;11.60;6.95;;;;;;;17.14;100.00;97101.75;5115753;27;20122;-76
2023/06/10 01:41:40;;;;;;;12.25;7.28;;;;;;;17.14;100.00;97093.66;5132743;27;20451;-76
2023/06/10 01:44:06;;;;;;;16.45;7.40;;;;;;;17.12;100.00;97098.34;5115572;27;20023;-76
2023/06/10 01:46:31;;;;;;;17.10;7.30;;;;;;;17.17;100.00;97098.75;5132712;27;20516;-76
2023/06/10 01:48:57;;;;;;;21.30;7.80;;;;;;;17.11;100.00;97088.53;5132606;27;20042;-75
2023/06/10 01:51:22;;;;;;;14.85;7.70;;;;;;;17.07;100.00;97097.94;5132632;27;20091;-75
2023/06/10 01:53:48;;;;;;;14.65;7.82;;;;;;;16.96;100.00;97098.09;5132260;27;20529;-76
2023/06/10 01:56:17;;;;;;;12.73;7.88;;;;;;;16.86;100.00;97103.53;5133747;27;20023;-75
2023/06/10 01:58:43;;;;;;;13.98;8.20;;;;;;;16.85;100.00;97106.38;5132355;27;20387;-75
2023/06/10 02:01:09;;;;;;;16.83;7.88;;;;;;;16.86;100.00;97110.78;5115261;27;20047;-75
2023/06/10 02:03:35;;;;;;;18.92;7.38;;;;;;;16.82;100.00;97103.97;5132447;27;20053;-75
2023/06/10 02:06:00;;;;;;;12.57;6.97;;;;;;;16.83;100.00;97116.50;5132172;27;20027;-76
2023/06/10 02:08:27;;;;;;;15.95;7.82;;;;;;;16.79;100.00;97118.63;5132261;27;20105;-76
2023/06/10 02:10:53;;;;;;;16.77;8.02;;;;;;;16.78;100.00;97120.47;5115147;27;20030;-76
2023/06/10 02:13:19;;;;;;;19.73;8.55;;;;;;;16.78;100.00;97123.16;5115039;27;20019;-76
2023/06/10 02:15:44;;;;;;;17.00;8.57;;;;;;;16.84;100.00;97127.13;5120673;27;20024;-76
2023/06/10 02:18:11;;;;;;;15.95;7.85;;;;;;;16.80;100.00;97121.16;5130820;27;20043;-76
2023/06/10 02:20:37;;;;;;;13.77;8.18;;;;;;;16.79;100.00;97105.97;5113881;27;20057;-76
2023/06/10 02:23:03;;;;;;;15.07;8.05;;;;;;;16.82;100.00;97115.63;5131803;27;20027;-74
2023/06/10 02:25:29;;;;;;;17.38;8.25;;;;;;;16.74;100.00;97110.94;5114488;27;20016;-75
2023/06/10 02:27:54;;;;;;;12.27;7.60;;;;;;;16.57;100.00;97110.81;5114526;27;20538;-75
2023/06/10 02:30:20;;;;;;;13.98;7.82;;;;;;;16.46;100.00;97114.47;5131567;27;20394;-75
2023/06/10 02:32:47;;;;;;;13.20;7.55;;;;;;;16.39;100.00;97121.44;5099032;28;20046;-74
2023/06/10 02:35:14;;;;;;;15.23;7.93;;;;;;;16.40;100.00;97127.66;5129981;27;20031;-75
2023/06/10 02:37:40;;;;;;;11.95;7.63;;;;;;;16.40;100.00;97131.22;5114224;27;20418;-75
2023/06/10 02:40:06;;;;;;;14.85;7.68;;;;;;;16.44;100.00;97135.34;5114214;27;20023;-75
2023/06/10 02:42:31;;;;;;;14.88;8.70;;;;;;;16.49;100.00;97130.38;5114072;27;20019;-75
2023/06/10 02:44:57;;;;;;;12.30;7.05;;;;;;;16.56;100.00;97136.97;5114257;27;20052;-75
2023/06/10 02:47:22;;;;;;;18.83;8.13;;;;;;;16.58;100.00;97134.13;5131109;27;20513;-75
2023/06/10 02:49:48;;;;;;;12.60;7.68;;;;;;;16.60;100.00;97121.31;5131145;27;20051;-75
2023/06/10 02:52:13;;;;;;;13.90;7.28;;;;;;;16.63;100.00;97127.31;5131005;27;20465;-75
2023/06/10 02:54:39;;;;;;;11.20;7.38;;;;;;;16.69;100.00;97132.13;5131175;27;20022;-75
2023/06/10 02:57:06;;;;;;;13.00;7.68;;;;;;;16.73;100.00;97136.22;5131124;27;20100;-76
2023/06/10 02:59:31;;;;;;;18.60;7.85;;;;;;;16.75;100.00;97123.44;5131088;27;20031;-75
2023/06/10 03:01:57;;;;;;;12.35;7.68;;;;;;;16.78;100.00;97125.88;5113841;27;20496;-75
2023/06/10 03:04:23;;;;;;;12.50;7.13;;;;;;;16.77;100.00;97140.34;5130730;27;20027;-75
2023/06/10 03:06:49;;;;;;;12.35;8.00;;;;;;;16.80;100.00;97144.63;5130981;27;21015;-75
2023/06/10 03:09:14;;;;;;;12.23;7.90;;;;;;;16.73;100.00;97146.22;5113679;27;20027;-76
2023/06/10 03:11:40;;;;;;;11.85;8.02;;;;;;;16.70;100.00;97141.91;5113306;27;20030;-75
2023/06/10 03:14:05;;;;;;;13.25;8.52;;;;;;;16.71;100.00;97158.97;5111619;28;20023;-75
2023/06/10 03:16:31;;;;;;;13.20;8.95;;;;;;;16.74;100.00;97164.94;5126588;27;20023;-75
2023/06/10 03:18:57;;;;;;;13.95;8.90;;;;;;;16.79;100.00;97181.59;5110681;27;20051;-75
2023/06/10 03:21:22;;;;;;;17.35;10.07;;;;;;;16.79;100.00;97186.16;5129201;27;20030;-76
2023/06/10 03:23:48;;;;;;;15.43;10.20;;;;;;;16.84;100.00;97189.28;5130834;27;20026;-76
2023/06/10 03:26:15;;;;;;;15.43;10.57;;;;;;;16.83;100.00;97186.72;5113724;27;20023;-76
2023/06/10 03:28:40;;;;;;;20.33;10.70;;;;;;;16.74;100.00;97177.59;5113679;27;20026;-76
2023/06/10 03:31:06;;;;;;;19.55;10.35;;;;;;;16.79;100.00;97176.22;5112978;28;20027;-76
2023/06/10 03:33:32;;;;;;;15.57;9.80;;;;;;;16.82;100.00;97166.97;5113296;27;20084;-76
2023/06/10 03:35:57;;;;;;;21.30;9.43;;;;;;;16.77;100.00;97170.06;5115333;27;20551;-76
2023/06/10 03:38:23;;;;;;;19.98;9.48;;;;;;;16.82;100.00;97171.50;5111490;27;20025;-75
2023/06/10 03:40:48;;;;;;;18.75;10.00;;;;;;;16.80;100.00;97164.38;5125319;27;20430;-76
2023/06/10 03:43:14;;;;;;;21.00;9.63;;;;;;;16.84;100.00;97166.81;5111066;28;20032;-76
2023/06/10 03:45:41;;;;;;;19.30;9.98;;;;;;;16.87;100.00;97171.91;5111326;28;20024;-76
2023/06/10 03:48:07;;;;;;;19.73;9.88;;;;;;;16.97;100.00;97167.38;5111126;28;20529;-77
2023/06/10 03:50:36;;;;;;;19.40;9.73;;;;;;;16.93;100.00;97182.16;5092882;28;21134;-76
2023/06/10 03:53:02;;;;;;;21.20;10.38;;;;;;;16.92;100.00;97175.88;5122607;27;20032;-74
2023/06/10 03:55:28;;;;;;;28.67;10.75;;;;;;;17.00;100.00;97191.41;5128832;28;20455;-75
2023/06/10 03:57:56;;;;;;;18.95;10.60;;;;;;;17.04;100.00;97185.53;5113396;28;20030;-76
2023/06/10 04:00:22;;;;;;;17.25;9.52;;;;;;;17.08;100.00;97184.28;5112952;28;20031;-75
2023/06/10 04:02:51;;;;;;;19.27;13.23;;;;;;;17.15;100.00;97176.44;5103783;28;20019;-84
2023/06/10 04:05:21;;;;;;;19.90;10.75;;;;;;;17.21;100.00;97183.97;5119074;28;20478;-84
2023/06/10 04:07:56;;;;;;;18.17;10.50;;;;;;;17.19;100.00;97173.31;5100230;28;20411;-81
2023/06/10 04:10:22;;;;;;;21.60;10.60;;;;;;;17.24;100.00;97178.28;5122143;28;20074;-80
2023/06/10 04:12:47;;;;;;;19.92;10.25;;;;;;;17.26;100.00;97176.28;5123491;28;20092;-82
2023/06/10 04:15:13;;;;;;;27.10;9.95;;;;;;;17.35;100.00;97178.97;5106938;28;20076;-81
2023/06/10 04:17:38;;;;;;;18.27;10.02;;;;;;;17.27;100.00;97159.91;5118309;27;20019;-82
2023/06/10 04:20:07;;;;;;;25.38;10.05;;;;;;;17.39;100.00;97157.03;5121473;28;20178;-82
2023/06/10 04:22:33;;;;;;;14.48;9.32;;;;;;;17.47;100.00;97155.31;5127557;27;20039;-82
2023/06/10 04:24:58;;;;;;;15.77;8.77;;;;;;;17.56;100.00;97148.22;5123204;28;20036;-82
2023/06/10 04:27:24;;;;;;;17.33;9.48;;;;;;;17.59;100.00;97140.66;5092618;28;20031;-79
2023/06/10 04:29:49;;;;;;;16.08;9.68;;;;;;;17.55;100.00;97141.09;5117607;28;20058;-79
2023/06/10 04:32:15;;;;;;;16.55;10.32;;;;;;;17.57;100.00;97148.03;5116747;28;20118;-79
2023/06/10 04:34:40;;;;;;;13.20;9.45;;;;;;;17.74;100.00;97158.09;5102915;28;20062;-79
2023/06/10 04:37:06;;;;;;;17.05;10.02;;;;;;;17.69;100.00;97157.66;5123129;27;20035;-81
2023/06/10 04:39:32;;;;;;;22.55;10.27;;;;;;;17.74;100.00;97165.38;5125451;28;20039;-82
2023/06/10 04:41:57;;;;;;;22.25;10.40;;;;;;;17.88;100.00;97156.75;5114190;28;20084;-79
2023/06/10 04:44:23;;;;;;;16.60;11.38;;;;;;;18.01;100.00;97165.38;5122020;27;20087;-78
2023/06/10 04:46:48;;;;;;;26.55;12.07;;;;;;;18.06;100.00;97151.38;5115371;27;20511;-79
2023/06/10 04:55:57;;;;;;;29.20;16.17;;;;;;;18.27;100.00;97131.16;5022652;28;20047;-81
2023/06/10 04:58:23;;;;;;;30.55;18.92;;;;;;;18.24;100.00;97127.94;5124907;27;20034;-81
2023/06/10 05:00:50;;;;;;;30.27;20.08;;;;;;;18.44;100.00;97137.59;5108713;27;20179;-81
2023/06/10 05:03:15;;;;;;;30.10;18.52;;;;;;;18.41;100.00;97117.09;5117571;27;20526;-82
2023/06/10 05:05:41;;;;;;;21.80;15.07;;;;;;;18.37;100.00;97112.13;5131161;27;20063;-82
2023/06/10 05:08:06;;;;;;;33.25;20.35;;;;;;;18.46;100.00;97102.25;5120903;27;20039;-80
2023/06/10 05:10:34;;;;;;;41.55;25.45;;;;;;;18.35;100.00;97092.50;5095930;28;20115;-81
2023/06/10 05:12:59;;;;;;;30.52;16.90;;;;;;;18.60;100.00;97094.47;5108065;27;20098;-81
2023/06/10 05:15:25;;;;;;;19.02;11.98;;;;;;;18.64;100.00;97082.28;5102102;27;20444;-80
2023/06/10 05:17:51;;;;;;;16.30;10.82;;;;;;;18.62;100.00;97089.72;5127794;27;20430;-80
2023/06/10 05:20:18;;;;;;;22.30;11.32;;;;;;;18.66;100.00;97093.84;5125221;27;20063;-81
2023/06/10 05:22:44;;;;;;;18.27;11.60;;;;;;;18.77;100.00;97082.75;5101768;28;20011;-80
2023/06/10 05:25:09;;;;;;;19.48;11.02;;;;;;;18.84;100.00;97081.09;5122741;27;20038;-81
2023/06/10 05:27:35;;;;;;;25.33;11.27;;;;;;;18.95;100.00;97086.25;5117235;27;20406;-80
2023/06/10 05:30:02;;;;;;;23.05;11.70;;;;;;;18.98;100.00;97085.09;5126926;27;20031;-78
2023/06/10 05:32:27;;;;;;;22.15;11.90;;;;;;;18.98;100.00;97078.84;5112295;27;20082;-80
2023/06/10 05:34:53;;;;;;;18.83;11.80;;;;;;;18.90;100.00;97077.78;5096983;28;20563;-80
2023/06/10 05:37:18;;;;;;;21.85;12.40;;;;;;;18.87;100.00;97067.25;5129154;27;20039;-79
2023/06/10 05:39:44;;;;;;;18.05;11.93;;;;;;;18.93;100.00;97082.00;5109942;27;20035;-81
2023/06/10 05:42:33;;;;;;;21.92;10.77;;;;;;;19.09;100.00;97065.88;5114396;27;20047;-78
2023/06/10 05:44:58;;;;;;;19.13;10.95;;;;;;;19.24;100.00;97049.84;5128978;27;20031;-79
2023/06/10 05:47:24;;;;;;;19.33;12.05;;;;;;;19.34;100.00;97058.75;5110308;27;20062;-79
2023/06/10 05:49:51;;;;;;;20.85;11.27;;;;;;;19.52;100.00;97048.69;5125636;27;20027;-79
2023/06/10 05:52:18;;;;;;;18.38;10.90;;;;;;;19.36;100.00;97057.56;5121607;27;20027;-80
2023/06/10 05:54:43;;;;;;;31.73;17.67;;;;;;;19.39;100.00;97053.66;5112299;27;20815;-81
2023/06/10 05:57:10;;;;;;;20.02;11.25;;;;;;;19.67;100.00;97052.47;5117982;27;20126;-79
2023/06/10 05:59:35;;;;;;;19.95;9.73;;;;;;;19.84;100.00;97040.66;5114849;27;20064;-80
2023/06/10 06:02:01;;;;;;;22.83;10.07;;;;;;;20.49;100.00;97046.25;5100829;28;20531;-80
2023/06/10 06:04:26;;;;;;;17.65;8.50;;;;;;;20.61;100.00;97028.59;5112315;27;20027;-81
2023/06/10 06:06:52;;;;;;;29.92;9.85;;;;;;;20.80;100.00;97033.69;5110940;27;20091;-81
2023/06/10 06:09:18;;;;;;;16.95;8.35;;;;;;;20.96;100.00;97028.25;5128812;27;20035;-81
2023/06/10 06:11:43;;;;;;;19.55;9.38;;;;;;;21.12;100.00;97034.72;5096342;27;20030;-80
2023/06/10 06:14:09;;;;;;;21.27;12.02;;;;;;;21.48;100.00;97033.25;5095930;28;20034;-79
2023/06/10 06:16:34;;;;;;;28.60;15.00;;;;;;;21.82;100.00;97024.78;5098928;27;20030;-80
2023/06/10 06:19:00;;;;;;;13.23;9.10;;;;;;;21.83;100.00;97013.72;5103636;27;20051;-80
2023/06/10 06:21:25;;;;;;;13.50;9.13;;;;;;;22.08;100.00;97012.59;5121685;27;20046;-80
2023/06/10 06:23:51;;;;;;;18.35;8.63;;;;;;;21.92;100.00;97009.94;5107444;27;20035;-81
2023/06/10 06:26:17;;;;;;;15.75;9.43;;;;;;;22.19;100.00;97008.59;5101347;27;20058;-79
2023/06/10 06:28:42;;;;;;;15.38;9.10;;;;;;;22.10;100.00;97012.41;5089361;27;20034;-80
2023/06/10 06:31:08;;;;;;;15.00;8.45;;;;;;;22.28;100.00;97021.13;5113048;27;20641;-81
2023/06/10 06:33:33;;;;;;;16.63;7.43;;;;;;;22.48;100.00;96999.69;5115973;27;20478;-80
2023/06/10 06:36:00;;;;;;;18.77;9.57;;;;;;;22.31;100.00;96998.13;5103108;28;20024;-80
2023/06/10 06:38:26;;;;;;;25.75;15.07;;;;;;;22.29;100.00;97008.34;5096176;27;20020;-78
2023/06/10 06:40:51;;;;;;;44.35;29.20;;;;;;;22.59;100.00;97002.84;5120178;27;20447;-77
2023/06/10 06:43:18;;;;;;;14.48;8.23;;;;;;;22.74;100.00;97000.19;5128547;27;20030;-78
2023/06/10 06:45:44;;;;;;;11.68;7.72;;;;;;;22.79;100.00;96996.91;5110355;27;20042;-77
2023/06/10 06:48:10;;;;;;;13.07;8.43;;;;;;;22.87;100.00;96996.84;5109899;27;20084;-77
2023/06/10 06:50:41;;;;;;;12.88;6.95;;;;;;;23.29;100.00;96990.78;5129081;27;20129;-77
2023/06/10 06:53:07;;;;;;;17.65;7.32;;;;;;;23.52;100.00;96988.81;5128569;27;20138;-81
2023/06/10 06:55:32;;;;;;;8.63;5.28;;;;;;;23.46;100.00;96971.31;5104431;28;20119;-78
2023/06/10 06:58:14;;;;;;;33.97;21.73;;;;;;;23.39;100.00;96978.56;5104838;27;20133;-77
2023/06/10 07:00:55;;;;;;;10.50;5.82;;;;;;;23.40;100.00;96974.81;5117911;27;20404;-78
2023/06/10 07:03:21;;;;;;;11.32;5.43;;;;;;;23.73;100.00;96970.63;5098080;27;20035;-78
2023/06/10 07:05:47;;;;;;;8.35;5.95;;;;;;;25.08;100.00;96975.19;5123267;27;20087;-76
2023/06/10 07:08:12;;;;;;;13.52;5.93;;;;;;;26.66;97.21;96951.22;5115672;27;20372;-77
2023/06/10 07:10:47;;;;;;;10.00;6.20;;;;;;;27.23;93.66;96947.84;5097739;27;20066;-77
2023/06/10 07:13:12;;;;;;;14.85;6.47;;;;;;;27.58;91.20;96949.28;5112452;27;20111;-76
2023/06/10 07:15:38;;;;;;;10.40;6.00;;;;;;;27.63;90.48;96943.13;5125505;27;20130;-77
2023/06/10 07:18:04;;;;;;;13.55;5.85;;;;;;;27.06;89.82;96939.22;5110963;27;20054;-77
2023/06/10 07:20:30;;;;;;;50.33;31.08;;;;;;;27.63;91.12;96940.38;5120116;27;20028;-79
2023/06/10 07:22:55;;;;;;;12.77;7.60;;;;;;;27.70;89.15;96936.53;5110628;27;20035;-78
2023/06/10 07:25:21;;;;;;;9.25;5.35;;;;;;;27.82;86.81;96925.72;5128890;27;20015;-80
2023/06/10 07:27:46;;;;;;;11.52;5.03;;;;;;;28.58;78.72;96925.72;5127927;27;20075;-85
2023/06/10 07:30:12;;;;;;;8.93;5.15;;;;;;;28.63;80.09;96923.13;5100714;28;20350;-83
2023/06/10 07:32:38;;;;;;;10.35;4.10;;;;;;;29.08;71.98;96910.91;5104410;28;20023;-80
2023/06/10 07:35:05;;;;;;;11.20;4.45;;;;;;;29.09;68.25;96904.34;5111910;27;20031;-85
2023/06/10 07:37:31;;;;;;;8.63;4.38;;;;;;;28.71;74.16;96903.63;5096047;28;20034;-84
2023/06/10 07:39:56;;;;;;;6.85;5.03;;;;;;;27.99;77.92;96894.72;5091782;28;20407;-84
2023/06/10 07:42:22;;;;;;;7.57;4.55;;;;;;;27.50;85.64;96902.81;5122358;27;20023;-83
2023/06/10 07:44:47;;;;;;;5.28;4.22;;;;;;;26.73;88.63;96906.25;5112094;27;20023;-83
2023/06/10 07:47:13;;;;;;;7.22;4.57;;;;;;;26.91;88.79;96903.75;5115259;27;20053;-83
2023/06/10 07:49:39;;;;;;;14.27;4.00;;;;;;;28.05;81.37;96903.22;5106467;28;20054;-82
2023/06/10 07:52:06;;;;;;;12.95;3.83;;;;;;;30.49;64.35;96898.59;5129212;27;20119;-83
2023/06/10 07:54:31;;;;;;;8.50;4.22;;;;;;;31.35;60.50;96905.47;5124899;27;20552;-82
2023/06/10 07:56:57;;;;;;;7.07;3.78;;;;;;;32.28;52.17;96875.66;5122068;28;20032;-80
2023/06/10 07:59:29;;;;;;;30.02;11.07;;;;;;;32.31;50.47;96875.16;5119855;28;20429;-81
2023/06/10 08:01:54;;;;;;;19.23;11.02;;;;;;;31.64;54.69;96880.44;5122025;27;20033;-83
2023/06/10 08:04:20;;;;;;;9.52;5.70;;;;;;;30.76;55.63;96860.38;5095720;28;20027;-81
2023/06/10 08:06:45;;;;;;;6.63;3.92;;;;;;;31.42;54.37;96871.06;5121645;28;20031;-81
2023/06/10 08:09:11;;;;;;;6.50;3.65;;;;;;;31.71;53.59;96871.16;5100214;28;20027;-83
2023/06/10 08:11:36;;;;;;;5.13;4.40;;;;;;;31.45;54.38;96865.03;5129527;28;20501;-81
2023/06/10 08:14:02;;;;;;;7.70;3.83;;;;;;;30.08;60.91;96852.50;5129710;27;20061;-81
2023/06/10 08:16:27;;;;;;;7.13;4.57;;;;;;;29.14;72.95;96874.19;5131162;27;20035;-81
2023/06/10 08:19:00;;;;;;;7.45;4.20;;;;;;;29.28;70.29;96867.50;5133213;27;20050;-80
2023/06/10 08:21:28;;;;;;;16.52;6.97;;;;;;;29.76;65.13;96858.44;5132892;27;20115;-81
2023/06/10 08:23:54;;;;;;;6.40;4.03;;;;;;;30.55;59.49;96881.09;5133987;27;20505;-79
2023/06/10 08:26:19;;;;;;;8.95;3.85;;;;;;;30.79;55.38;96848.84;5131155;27;20024;-80
2023/06/10 08:28:45;;;;;;;14.85;4.20;;;;;;;30.78;59.30;96865.63;5109014;28;20054;-80
2023/06/10 08:31:11;;;;;;;13.55;4.68;;;;;;;30.99;55.28;96856.78;5126031;27;20041;-80
2023/06/10 08:33:36;;;;;;;11.82;4.35;;;;;;;32.22;53.59;96860.03;5127720;27;20020;-79
2023/06/10 08:36:02;;;;;;;8.38;4.65;;;;;;;32.81;46.64;96846.69;5113103;28;20070;-80
2023/06/10 08:38:27;;;;;;;7.72;3.30;;;;;;;34.00;39.92;96817.31;5132600;27;20405;-80
2023/06/10 08:40:56;;;;;;;5.78;3.83;;;;;;;33.78;42.24;96826.50;5116638;27;20027;-80
2023/06/10 08:43:34;;;;;;;6.43;3.45;;;;;;;32.97;43.86;96816.22;5108298;27;20521;-80
2023/06/10 08:46:01;;;;;;;6.45;2.83;;;;;;;31.60;44.93;96803.72;5133758;27;20449;-78
2023/06/10 08:48:30;;;;;;;6.05;3.17;;;;;;;32.04;45.89;96819.56;5132989;27;20050;-79
2023/06/10 08:50:56;;;;;;;6.38;3.20;;;;;;;31.37;46.97;96814.81;5133695;27;20030;-79
2023/06/10 08:53:24;;;;;;;6.70;3.50;;;;;;;31.28;47.87;96807.97;5113630;28;20031;-79
2023/06/10 08:55:54;;;;;;;7.72;3.95;;;;;;;31.33;49.29;96819.97;5129221;27;20474;-79
2023/06/10 08:58:20;;;;;;;8.45;3.53;;;;;;;31.58;47.95;96806.72;5134697;27;20019;-78
2023/06/10 09:00:46;;;;;;;6.78;3.15;;;;;;;30.95;47.27;96784.59;5110978;28;20058;-76
2023/06/10 09:03:11;;;;;;;6.88;3.95;;;;;;;30.91;51.18;96821.22;5133144;27;20019;-80
2023/06/10 09:05:37;;;;;;;4.10;3.35;;;;;;;30.73;49.70;96793.72;5116615;27;20016;-79
2023/06/10 09:08:05;;;;;;;21.85;12.18;;;;;;;30.98;51.48;96813.66;5119032;27;20031;-78
2023/06/10 09:10:31;;;;;;;19.02;9.10;;;;;;;31.22;51.62;96811.72;5118796;27;20035;-78
2023/06/10 09:12:57;;;;;;;5.03;2.80;;;;;;;31.94;46.60;96805.50;5114391;28;20479;-78
2023/06/10 09:15:22;;;;;;;5.53;3.58;;;;;;;32.26;44.88;96793.94;5124643;27;20103;-80
2023/06/10 09:17:48;;;;;;;9.45;4.00;;;;;;;33.40;43.16;96807.16;5133546;27;20524;-81
2023/06/10 09:20:13;;;;;;;7.47;3.70;;;;;;;31.99;44.34;96772.41;5114508;27;20039;-81
2023/06/10 09:22:40;;;;;;;6.85;3.03;;;;;;;31.71;44.56;96779.88;5114186;28;20343;-82
2023/06/10 09:25:10;;;;;;;10.82;5.05;;;;;;;31.83;45.89;96788.94;5120368;27;20026;-80
2023/06/10 09:27:50;;;;;;;6.57;4.43;;;;;;;33.10;43.69;96806.72;5133328;27;20546;-80
2023/06/10 09:30:34;;;;;;;9.98;3.95;;;;;;;32.54;40.37;96763.41;5130728;27;20031;-79
2023/06/10 09:33:02;;;;;;;6.55;4.88;;;;;;;32.15;40.82;96754.13;5112256;27;20034;-80
2023/06/10 09:35:29;;;;;;;4.88;3.70;;;;;;;32.30;41.29;96761.91;5132833;27;20422;-80
2023/06/10 09:37:59;;;;;;;6.13;3.85;;;;;;;31.45;42.14;96737.84;5133225;27;20487;-82
2023/06/10 09:40:26;;;;;;;5.57;3.63;;;;;;;30.87;44.96;96760.06;5133054;27;20038;-77
2023/06/10 09:42:59;;;;;;;7.03;4.45;;;;;;;30.31;48.37;96763.38;5087373;28;20519;-78
2023/06/10 09:45:32;;;;;;;8.18;3.10;;;;;;;29.80;49.23;96765.88;5097858;28;20083;-78
2023/06/10 09:47:58;;;;;;;5.30;3.15;;;;;;;29.17;49.78;96763.50;5128033;27;20023;-78
2023/06/10 09:50:23;;;;;;;8.55;3.70;;;;;;;29.42;50.46;96775.31;5115419;27;20040;-77
2023/06/10 09:52:50;;;;;;;6.90;3.53;;;;;;;30.00;48.67;96777.47;5115568;27;20031;-78
2023/06/10 09:55:16;;;;;;;7.90;5.43;;;;;;;31.22;45.75;96787.69;5129663;27;20038;-76
2023/06/10 09:57:44;;;;;;;6.80;5.45;;;;;;;33.77;41.06;96808.22;5110043;27;20019;-75
2023/06/10 10:00:11;;;;;;;10.27;4.80;;;;;;;35.39;38.34;96812.47;5107284;28;20384;-78
2023/06/10 10:02:50;;;;;;;9.32;5.82;;;;;;;36.80;36.89;96821.28;5112667;28;20106;-80
2023/06/10 10:05:17;;;;;;;5.85;3.63;;;;;;;37.73;34.33;96784.56;5129632;27;20110;-78
2023/06/10 10:07:43;;;;;;;8.27;4.00;;;;;;;38.01;33.81;96786.69;5127567;27;20023;-79
2023/06/10 10:10:10;;;;;;;6.70;3.20;;;;;;;38.54;32.82;96776.59;5107056;27;20404;-77
2023/06/10 10:12:38;;;;;;;8.23;4.55;;;;;;;39.02;33.00;96772.81;5115329;27;20032;-79
2023/06/10 10:15:07;;;;;;;14.05;4.28;;;;;;;39.56;33.02;96791.31;5128250;27;20028;-79
2023/06/10 10:17:34;;;;;;;5.07;3.60;;;;;;;38.70;31.98;96722.16;5114436;27;20031;-81
2023/06/10 10:20:05;;;;;;;9.18;3.30;;;;;;;37.33;33.09;96718.53;5121059;27;20034;-80
2023/06/10 10:22:37;;;;;;;7.03;3.28;;;;;;;37.71;32.79;96711.41;5122602;27;20031;-78
2023/06/10 10:25:06;;;;;;;7.72;2.97;;;;;;;38.45;32.19;96725.22;5121714;27;20043;-76
2023/06/10 10:27:43;;;;;;;5.22;3.28;;;;;;;39.51;31.19;96738.13;5108234;27;20120;-79
2023/06/10 10:30:11;;;;;;;7.50;3.97;;;;;;;39.53;31.39;96728.28;5103919;27;20027;-78
2023/06/10 10:36:28;;;;;;;8.40;4.05;;;;;;;40.06;30.64;96712.16;5115348;27;20551;-78
2023/06/10 10:38:54;;;;;;;9.90;3.20;;;;;;;40.57;29.02;96717.03;5113184;27;20470;-78
2023/06/10 10:41:20;;;;;;;3.95;3.20;;;;;;;40.08;29.63;96684.69;5112460;28;20418;-77
2023/06/10 10:43:46;;;;;;;5.80;3.95;;;;;;;40.26;29.00;96690.59;5123453;27;20022;-81
2023/06/10 10:46:17;;;;;;;4.60;3.30;;;;;;;40.46;28.80;96676.22;5127119;27;20023;-80
2023/06/10 10:48:43;;;;;;;3.33;3.00;;;;;;;40.64;29.09;96683.78;5094206;28;20024;-79
2023/06/10 10:51:09;;;;;;;4.65;3.22;;;;;;;39.14;29.79;96640.00;5102829;28;20119;-80
2023/06/10 10:53:44;;;;;;;10.98;3.83;;;;;;;39.61;29.23;96642.78;5115363;27;20019;-81
2023/06/10 10:56:20;;;;;;;3.38;2.95;;;;;;;39.67;29.17;96661.22;5132508;27;20454;-76
2023/06/10 10:59:05;;;;;;;6.78;3.42;;;;;;;39.18;30.17;96638.28;5100579;27;20023;-76
2023/06/10 11:01:46;;;;;;;5.85;3.13;;;;;;;39.17;29.11;96629.06;5117466;27;20026;-79
2023/06/10 11:04:11;;;;;;;;;;;;;;;38.92;29.90;96641.41;5117021;27;20055;-80
2023/06/10 11:06:37;;;;;;;4.78;3.13;;;;;;;39.33;29.52;96647.38;5093971;28;19946;-80
2023/06/10 11:09:26;;;;;;;3.63;2.90;;;;;;;38.83;30.08;96640.38;5130389;27;20038;-80
2023/06/10 11:11:52;;;;;;;3.10;2.80;;;;;;;38.42;30.31;96613.97;5131865;27;20477;-80
2023/06/10 11:14:29;;;;;;;4.85;3.35;;;;;;;37.42;31.76;96628.34;5110989;28;20031;-81
2023/06/10 11:16:59;;;;;;;5.47;2.97;;;;;;;37.77;31.18;96624.53;5120667;27;20015;-81
2023/06/10 11:19:38;;;;;;;11.85;3.30;;;;;;;36.75;32.86;96620.50;5098707;27;20058;-81
2023/06/10 11:22:07;;;;;;;5.65;3.60;;;;;;;34.75;34.84;96617.16;5113942;27;20045;-80
2023/06/10 11:24:33;;;;;;;4.43;3.47;;;;;;;33.37;36.93;96621.00;5131291;27;20019;-82
2023/06/10 11:27:37;;;;;;;3.80;3.25;;;;;;;32.39;38.46;96625.53;5113972;27;20023;-81
2023/06/10 11:30:03;;;;;;;5.35;3.35;;;;;;;33.25;37.97;96643.34;5088461;27;20518;-81
2023/06/10 11:32:39;;;;;;;6.60;3.70;;;;;;;34.24;36.58;96649.31;5123947;27;20055;-81